MSC Vanessa — HOWD — position and weather

sailwx.info

Track history (hours):
 
Tides and Currents Weather Stations Pressure Air Temp Water Temp Dewpoint Dewpoint Depression Visibility Wind Speed Wind Dir Waves Ship Positions

MSC Vanessa

Last reported at 2014-Nov-24 15:33 UTC. Time now 2014-Nov-24 16:15 UTC.
Position N 39°02' E 003°41'.

Length 300 m; draft 10.4 m.

Type: Ship (hazmat cat A). MMSI: 356946000.

Date/timePositionNaut miles runAvg speedWind from/ knotsBaromVisibWave heightAir tempDewpointWater temp
2014-Nov-24 15:33N 39°02' E 003°41'5518.2
2014-Nov-24 12:33N 39°38' E 004°33'14613.2
2014-Nov-24 01:28N 41°26' E 006°42'7713.0
2014-Nov-23 19:32N 42°23' E 007°52'1613.3
2014-Nov-23 18:19N 42°35' E 008°07'1013.1
2014-Nov-23 17:33N 42°43' E 008°16'1312.9
2014-Nov-23 16:33N 42°52' E 008°28'1313.0
2014-Nov-23 15:33N 43°02' E 008°40'1313.2
2014-Nov-23 14:33N 43°12' E 008°52'1313.3
2014-Nov-23 13:33N 43°21' E 009°04'1313.0
2014-Nov-23 12:33N 43°31' E 009°16'1313.1
2014-Nov-23 11:34N 43°41' E 009°28'1313.2
2014-Nov-23 10:33N 43°51' E 009°41'1313.1
2014-Nov-23 09:33N 44°01' E 009°52'6 5.7
2014-Nov-23 08:33N 44°06' E 009°51'0 0.0
2014-Nov-23 07:33N 44°06' E 009°51'0 0.0
2014-Nov-23 06:33N 44°06' E 009°51'0 0.0
2014-Nov-23 05:33N 44°06' E 009°51'0 0.0
2014-Nov-23 04:33N 44°06' E 009°51'0 0.0
2014-Nov-23 03:33N 44°06' E 009°51'0 0.0
2014-Nov-23 02:30N 44°06' E 009°51'0 0.0
2014-Nov-23 01:33N 44°06' E 009°51'0 0.0
2014-Nov-23 00:33N 44°06' E 009°51'0 0.0
2014-Nov-22 23:33N 44°06' E 009°51'0 0.0
2014-Nov-22 22:33N 44°06' E 009°51'0 0.0
2014-Nov-22 21:30N 44°06' E 009°51'0 0.0
2014-Nov-22 20:33N 44°06' E 009°51'0 0.0
2014-Nov-22 19:33N 44°06' E 009°51'0 0.0
2014-Nov-22 18:33N 44°06' E 009°51'0 0.0
2014-Nov-22 17:30N 44°06' E 009°51'0 0.0
2014-Nov-22 16:33N 44°06' E 009°51'0 0.0
2014-Nov-22 15:33N 44°06' E 009°51'0 0.0
2014-Nov-22 14:33N 44°06' E 009°51'0 0.0
2014-Nov-22 13:33N 44°06' E 009°51'0 0.0
2014-Nov-22 12:33N 44°06' E 009°51'0 0.0
2014-Nov-22 11:30N 44°06' E 009°51'0 0.0
2014-Nov-22 10:33N 44°06' E 009°51'0 0.0
2014-Nov-22 09:33N 44°06' E 009°51'0 0.0
2014-Nov-22 08:33N 44°06' E 009°51'0 0.0
2014-Nov-22 07:33N 44°06' E 009°51'1 0.5
2014-Nov-22 06:33N 44°06' E 009°51'8 7.4
2014-Nov-22 05:31N 43°58' E 009°51'0 0.1
2014-Nov-22 04:31N 43°58' E 009°51'0 0.0
2014-Nov-22 03:31N 43°58' E 009°51'0 0.0
2014-Nov-22 02:31N 43°58' E 009°51'0 0.0
2014-Nov-22 01:31N 43°58' E 009°51'0 0.0
2014-Nov-22 00:31N 43°58' E 009°51'0 0.0
2014-Nov-21 23:31N 43°58' E 009°51'0 0.0
2014-Nov-21 22:31N 43°58' E 009°51'0 0.0
2014-Nov-21 21:31N 43°58' E 009°51'0 0.0
2014-Nov-21 20:31N 43°58' E 009°51'0 0.0
2014-Nov-21 19:31N 43°58' E 009°51'0 0.0
2014-Nov-21 18:31N 43°58' E 009°51'0 0.0
2014-Nov-21 17:31N 43°58' E 009°51'0 0.0
2014-Nov-21 16:31N 43°58' E 009°51'0 0.0
2014-Nov-21 15:31N 43°58' E 009°51'0 0.0
2014-Nov-21 14:31N 43°58' E 009°51'0 0.3
2014-Nov-21 13:33N 43°58' E 009°51'1211.6
2014-Nov-21 12:33N 43°47' E 009°54'1312.8
2014-Nov-21 11:34N 43°34' E 009°52'1413.9
2014-Nov-21 10:33N 43°30' E 010°10'7 7.1
2014-Nov-21 09:34N 43°34' E 010°18'0 0.3
2014-Nov-21 08:33N 43°34' E 010°18'0 0.0
2014-Nov-21 07:30N 43°34' E 010°18'0 0.0
2014-Nov-21 06:33N 43°34' E 010°18'0 0.0
2014-Nov-21 05:33N 43°34' E 010°18'0 0.0
2014-Nov-21 04:33N 43°34' E 010°18'0 0.0
2014-Nov-21 03:33N 43°34' E 010°18'0 0.0
2014-Nov-21 02:30N 43°34' E 010°18'0 0.0
2014-Nov-21 01:33N 43°34' E 010°18'0 0.0
2014-Nov-21 00:33N 43°34' E 010°18'0 0.0
2014-Nov-20 23:33N 43°34' E 010°18'0 0.0
2014-Nov-20 22:33N 43°34' E 010°18'0 0.0
2014-Nov-20 21:33N 43°34' E 010°18'0 0.0
2014-Nov-20 20:33N 43°34' E 010°18'0 0.0
2014-Nov-20 19:33N 43°34' E 010°18'0 0.0
2014-Nov-20 18:33N 43°34' E 010°18'0 0.0
2014-Nov-20 17:33N 43°34' E 010°18'0 0.0
2014-Nov-20 16:33N 43°34' E 010°18'0 0.0
2014-Nov-20 15:33N 43°34' E 010°18'0 0.0
2014-Nov-20 14:33N 43°34' E 010°18'2 1.9
2014-Nov-20 13:33N 43°33' E 010°17'3 2.5
2014-Nov-20 12:33N 43°31' E 010°15'7 6.8
2014-Nov-20 11:33N 43°25' E 010°11'1919.0
2014-Nov-20 10:33N 43°07' E 010°02'19119.0
2014-Nov-20 00:29N 40°43' E 012°53'1921.1
2014-Nov-19 23:33N 40°40' E 013°18'2221.2
2014-Nov-19 22:31N 40°37' E 013°47'1819.1
2014-Nov-19 21:33N 40°42' E 014°10'10 0.4
2014-Nov-18 22:33N 40°49' E 014°18'5 4.7
2014-Nov-18 21:33N 40°45' E 014°21'1 0.7
2014-Nov-18 20:33N 40°44' E 014°21'1 0.5
2014-Nov-18 19:33N 40°44' E 014°20'1 0.6
2014-Nov-18 18:33N 40°43' E 014°19'1 0.6
2014-Nov-18 17:33N 40°43' E 014°19'1 0.5
2014-Nov-18 16:27N 40°43' E 014°18'0 0.4
2014-Nov-18 15:33N 40°43' E 014°18'1 0.6
2014-Nov-18 14:33N 40°43' E 014°17'1 0.7
2014-Nov-18 13:33N 40°43' E 014°16'1 0.8
2014-Nov-18 12:27N 40°43' E 014°15'1 0.8
2014-Nov-18 11:33N 40°43' E 014°14'1 0.7
2014-Nov-18 10:33N 40°42' E 014°13'0 0.3
2014-Nov-18 09:33N 40°42' E 014°14'5 4.7
2014-Nov-18 08:33N 40°47' E 014°16'1312.6
2014-Nov-18 07:33N 40°36' E 014°08'1211.6
2014-Nov-18 06:33N 40°24' E 014°12'1612.6
2014-Nov-18 05:20N 40°11' E 014°23'  
2014-Nov-15 23:31N 38°21' E 014°19'1414.4
2014-Nov-15 22:33N 38°23' E 014°01'1514.9
2014-Nov-15 21:33N 38°24' E 013°42'1514.7
2014-Nov-15 20:33N 38°26' E 013°24'1414.1
2014-Nov-15 19:33N 38°27' E 013°06'1413.9
2014-Nov-15 18:33N 38°28' E 012°48'2813.9
2014-Nov-15 16:32N 38°30' E 012°12'4313.7
2014-Nov-15 13:26N 38°32' E 011°18'1516.0
2014-Nov-15 12:30N 38°32' E 010°59'1516.0
2014-Nov-15 11:33N 38°33' E 010°40'1616.4
2014-Nov-15 10:33N 38°34' E 010°19'1716.6
2014-Nov-15 09:33N 38°35' E 009°57'1716.9
2014-Nov-15 08:33N 38°36' E 009°36'1716.8
2014-Nov-15 07:33N 38°36' E 009°15'1716.8
2014-Nov-15 06:33N 38°37' E 008°53'1716.4
2014-Nov-15 05:32N 38°38' E 008°32'1616.5
2014-Nov-15 04:33N 38°39' E 008°11'1716.7
2014-Nov-15 03:33N 38°40' E 007°49'18716.5
2014-Nov-14 16:15N 38°48' E 003°51'1216.6
2014-Nov-14 15:33N 38°49' E 003°36'  
Track history (hours):
 
Tides and Currents Weather Stations Pressure Air Temp Water Temp Dewpoint Dewpoint Depression Visibility Wind Speed Wind Dir Waves Ship Positions

MSC Vanessa

Last reported at 2014-Nov-24 15:33 UTC. Time now 2014-Nov-24 16:15 UTC.
Position N 39°02' E 003°41'.

Length 300 m; draft 10.4 m.

Type: Ship (hazmat cat A). MMSI: 356946000.

Date/timePositionNaut miles runAvg speedWind from/ knotsBaromVisibWave heightAir tempDewpointWater temp
2014-Nov-24 15:33N 39°02' E 003°41'5518.2
2014-Nov-24 12:33N 39°38' E 004°33'14613.2
2014-Nov-24 01:28N 41°26' E 006°42'7713.0
2014-Nov-23 19:32N 42°23' E 007°52'1613.3
2014-Nov-23 18:19N 42°35' E 008°07'1013.1
2014-Nov-23 17:33N 42°43' E 008°16'1312.9
2014-Nov-23 16:33N 42°52' E 008°28'1313.0
2014-Nov-23 15:33N 43°02' E 008°40'1313.2
2014-Nov-23 14:33N 43°12' E 008°52'1313.3
2014-Nov-23 13:33N 43°21' E 009°04'1313.0
2014-Nov-23 12:33N 43°31' E 009°16'1313.1
2014-Nov-23 11:34N 43°41' E 009°28'1313.2
2014-Nov-23 10:33N 43°51' E 009°41'1313.1
2014-Nov-23 09:33N 44°01' E 009°52'6 5.7
2014-Nov-23 08:33N 44°06' E 009°51'0 0.0
2014-Nov-23 07:33N 44°06' E 009°51'0 0.0
2014-Nov-23 06:33N 44°06' E 009°51'0 0.0
2014-Nov-23 05:33N 44°06' E 009°51'0 0.0
2014-Nov-23 04:33N 44°06' E 009°51'0 0.0
2014-Nov-23 03:33N 44°06' E 009°51'0 0.0
2014-Nov-23 02:30N 44°06' E 009°51'0 0.0
2014-Nov-23 01:33N 44°06' E 009°51'0 0.0
2014-Nov-23 00:33N 44°06' E 009°51'0 0.0
2014-Nov-22 23:33N 44°06' E 009°51'0 0.0
2014-Nov-22 22:33N 44°06' E 009°51'0 0.0
2014-Nov-22 21:30N 44°06' E 009°51'0 0.0
2014-Nov-22 20:33N 44°06' E 009°51'0 0.0
2014-Nov-22 19:33N 44°06' E 009°51'0 0.0
2014-Nov-22 18:33N 44°06' E 009°51'0 0.0
2014-Nov-22 17:30N 44°06' E 009°51'0 0.0
2014-Nov-22 16:33N 44°06' E 009°51'0 0.0
2014-Nov-22 15:33N 44°06' E 009°51'0 0.0
2014-Nov-22 14:33N 44°06' E 009°51'0 0.0
2014-Nov-22 13:33N 44°06' E 009°51'0 0.0
2014-Nov-22 12:33N 44°06' E 009°51'0 0.0
2014-Nov-22 11:30N 44°06' E 009°51'0 0.0
2014-Nov-22 10:33N 44°06' E 009°51'0 0.0
2014-Nov-22 09:33N 44°06' E 009°51'0 0.0
2014-Nov-22 08:33N 44°06' E 009°51'0 0.0
2014-Nov-22 07:33N 44°06' E 009°51'1 0.5
2014-Nov-22 06:33N 44°06' E 009°51'8 7.4
2014-Nov-22 05:31N 43°58' E 009°51'0 0.1
2014-Nov-22 04:31N 43°58' E 009°51'0 0.0
2014-Nov-22 03:31N 43°58' E 009°51'0 0.0
2014-Nov-22 02:31N 43°58' E 009°51'0 0.0
2014-Nov-22 01:31N 43°58' E 009°51'0 0.0
2014-Nov-22 00:31N 43°58' E 009°51'0 0.0
2014-Nov-21 23:31N 43°58' E 009°51'0 0.0
2014-Nov-21 22:31N 43°58' E 009°51'0 0.0
2014-Nov-21 21:31N 43°58' E 009°51'0 0.0
2014-Nov-21 20:31N 43°58' E 009°51'0 0.0
2014-Nov-21 19:31N 43°58' E 009°51'0 0.0
2014-Nov-21 18:31N 43°58' E 009°51'0 0.0
2014-Nov-21 17:31N 43°58' E 009°51'0 0.0
2014-Nov-21 16:31N 43°58' E 009°51'0 0.0
2014-Nov-21 15:31N 43°58' E 009°51'0 0.0
2014-Nov-21 14:31N 43°58' E 009°51'0 0.3
2014-Nov-21 13:33N 43°58' E 009°51'1211.6
2014-Nov-21 12:33N 43°47' E 009°54'1312.8
2014-Nov-21 11:34N 43°34' E 009°52'1413.9
2014-Nov-21 10:33N 43°30' E 010°10'7 7.1
2014-Nov-21 09:34N 43°34' E 010°18'0 0.3
2014-Nov-21 08:33N 43°34' E 010°18'0 0.0
2014-Nov-21 07:30N 43°34' E 010°18'0 0.0
2014-Nov-21 06:33N 43°34' E 010°18'0 0.0
2014-Nov-21 05:33N 43°34' E 010°18'0 0.0
2014-Nov-21 04:33N 43°34' E 010°18'0 0.0
2014-Nov-21 03:33N 43°34' E 010°18'0 0.0
2014-Nov-21 02:30N 43°34' E 010°18'0 0.0
2014-Nov-21 01:33N 43°34' E 010°18'0 0.0
2014-Nov-21 00:33N 43°34' E 010°18'0 0.0
2014-Nov-20 23:33N 43°34' E 010°18'0 0.0
2014-Nov-20 22:33N 43°34' E 010°18'0 0.0
2014-Nov-20 21:33N 43°34' E 010°18'0 0.0
2014-Nov-20 20:33N 43°34' E 010°18'0 0.0
2014-Nov-20 19:33N 43°34' E 010°18'0 0.0
2014-Nov-20 18:33N 43°34' E 010°18'0 0.0
2014-Nov-20 17:33N 43°34' E 010°18'0 0.0
2014-Nov-20 16:33N 43°34' E 010°18'0 0.0
2014-Nov-20 15:33N 43°34' E 010°18'0 0.0
2014-Nov-20 14:33N 43°34' E 010°18'2 1.9
2014-Nov-20 13:33N 43°33' E 010°17'3 2.5
2014-Nov-20 12:33N 43°31' E 010°15'7 6.8
2014-Nov-20 11:33N 43°25' E 010°11'1919.0
2014-Nov-20 10:33N 43°07' E 010°02'19119.0
2014-Nov-20 00:29N 40°43' E 012°53'1921.1
2014-Nov-19 23:33N 40°40' E 013°18'2221.2
2014-Nov-19 22:31N 40°37' E 013°47'1819.1
2014-Nov-19 21:33N 40°42' E 014°10'10 0.4
2014-Nov-18 22:33N 40°49' E 014°18'5 4.7
2014-Nov-18 21:33N 40°45' E 014°21'1 0.7
2014-Nov-18 20:33N 40°44' E 014°21'1 0.5
2014-Nov-18 19:33N 40°44' E 014°20'1 0.6
2014-Nov-18 18:33N 40°43' E 014°19'1 0.6
2014-Nov-18 17:33N 40°43' E 014°19'1 0.5
2014-Nov-18 16:27N 40°43' E 014°18'0 0.4
2014-Nov-18 15:33N 40°43' E 014°18'1 0.6
2014-Nov-18 14:33N 40°43' E 014°17'1 0.7
2014-Nov-18 13:33N 40°43' E 014°16'1 0.8
2014-Nov-18 12:27N 40°43' E 014°15'1 0.8
2014-Nov-18 11:33N 40°43' E 014°14'1 0.7
2014-Nov-18 10:33N 40°42' E 014°13'0 0.3
2014-Nov-18 09:33N 40°42' E 014°14'5 4.7
2014-Nov-18 08:33N 40°47' E 014°16'1312.6
2014-Nov-18 07:33N 40°36' E 014°08'1211.6
2014-Nov-18 06:33N 40°24' E 014°12'1612.6
2014-Nov-18 05:20N 40°11' E 014°23'  
2014-Nov-15 23:31N 38°21' E 014°19'1414.4
2014-Nov-15 22:33N 38°23' E 014°01'1514.9
2014-Nov-15 21:33N 38°24' E 013°42'1514.7
2014-Nov-15 20:33N 38°26' E 013°24'1414.1
2014-Nov-15 19:33N 38°27' E 013°06'1413.9
2014-Nov-15 18:33N 38°28' E 012°48'2813.9
2014-Nov-15 16:32N 38°30' E 012°12'4313.7
2014-Nov-15 13:26N 38°32' E 011°18'1516.0
2014-Nov-15 12:30N 38°32' E 010°59'1516.0
2014-Nov-15 11:33N 38°33' E 010°40'1616.4
2014-Nov-15 10:33N 38°34' E 010°19'1716.6
2014-Nov-15 09:33N 38°35' E 009°57'1716.9
2014-Nov-15 08:33N 38°36' E 009°36'1716.8
2014-Nov-15 07:33N 38°36' E 009°15'1716.8
2014-Nov-15 06:33N 38°37' E 008°53'1716.4
2014-Nov-15 05:32N 38°38' E 008°32'1616.5
2014-Nov-15 04:33N 38°39' E 008°11'1716.7
2014-Nov-15 03:33N 38°40' E 007°49'18716.5
2014-Nov-14 16:15N 38°48' E 003°51'1216.6
2014-Nov-14 15:33N 38°49' E 003°36'  

Dump ship's entire track history